Time;durP1;ratioP1;P1;durP2;ratioP2;P2;SDS_P1;SDS_P2;PMS_P1;PMS_P2;Temp;Humidity;BMP_temperature;BMP_pressure;BME280_temperature;BME280_humidity;BME280_pressure;Samples;Min_cycle;Max_cycle;Signal;HPM_P1;HPM_P2
2022/12/10 00:04:01;;;;;;;8.40;5.80;;;;;;;17.51;45.25;95291.41;10485699;28;20028;-30
2022/12/10 00:09:05;;;;;;;9.95;6.22;;;;;;;17.51;45.06;95286.34;10484009;28;20032;-30
2022/12/10 00:14:06;;;;;;;7.95;6.00;;;;;;;17.50;45.07;95289.72;10481709;28;20114;-30
2022/12/10 00:19:07;;;;;;;8.40;6.18;;;;;;;17.50;45.13;95294.78;10480747;28;20042;-29
2022/12/10 00:24:09;;;;;;;8.03;5.77;;;;;;;17.50;45.63;95305.72;10482581;28;20073;-30
2022/12/10 00:29:12;;;;;;;7.25;6.35;;;;;;;17.50;45.72;95317.56;10479720;28;20322;-30
2022/12/10 00:34:13;;;;;;;7.45;6.45;;;;;;;17.48;45.73;95316.78;10480593;28;20389;-30
2022/12/10 00:39:17;;;;;;;7.05;5.63;;;;;;;17.48;45.85;95316.78;10485153;28;20036;-30
2022/12/10 00:44:18;;;;;;;10.82;6.00;;;;;;;17.48;45.90;95299.06;10474361;28;20483;-30
2022/12/10 00:49:18;;;;;;;7.95;6.13;;;;;;;17.47;45.85;95289.78;10486211;28;20032;-30
2022/12/10 00:54:18;;;;;;;9.43;5.70;;;;;;;17.45;45.23;95289.81;10483784;28;20025;-30
2022/12/10 00:59:19;;;;;;;6.87;5.90;;;;;;;17.50;45.95;95304.91;10484007;28;20294;-30
2022/12/10 01:04:19;;;;;;;9.33;6.60;;;;;;;17.51;45.47;95296.47;10479216;28;20267;-30
2022/12/10 01:09:26;;;;;;;7.07;6.38;;;;;;;17.49;46.03;95300.72;10473494;28;20283;-30
2022/12/10 01:14:30;;;;;;;8.38;6.40;;;;;;;17.44;45.75;95316.00;10459542;28;20029;-30
2022/12/10 01:19:33;;;;;;;8.15;6.15;;;;;;;17.47;46.04;95330.25;10476515;28;20036;-31
2022/12/10 01:24:35;;;;;;;8.05;6.97;;;;;;;17.46;46.73;95341.22;10473858;28;20033;-31
2022/12/10 01:29:36;;;;;;;10.55;6.90;;;;;;;17.45;46.27;95340.41;10480936;28;20044;-29
2022/12/10 01:34:36;;;;;;;9.10;7.57;;;;;;;17.44;45.49;95335.38;10478209;28;20028;-30
2022/12/10 01:39:37;;;;;;;6.83;5.57;;;;;;;17.45;46.16;95314.28;10473576;28;20663;-30
2022/12/10 01:44:40;;;;;;;8.10;6.25;;;;;;;17.43;46.37;95319.38;10475903;28;20297;-30
2022/12/10 01:49:41;;;;;;;9.25;6.30;;;;;;;17.42;45.91;95317.69;10484242;28;20485;-30
2022/12/10 01:54:44;;;;;;;7.53;6.72;;;;;;;17.41;46.47;95326.13;10477421;28;20029;-30
2022/12/10 01:59:49;;;;;;;7.43;6.63;;;;;;;17.42;46.56;95327.81;10477233;28;20039;-30
2022/12/10 02:05:11;;;;;;;10.40;6.47;;;;;;;17.46;46.42;95331.13;10475804;28;20033;-30
2022/12/10 02:10:12;;;;;;;8.30;6.55;;;;;;;17.46;46.77;95334.50;10485601;28;20059;-30
2022/12/10 02:15:22;;;;;;;9.25;6.55;;;;;;;17.44;46.64;95327.78;10491292;28;20047;-30
2022/12/10 02:20:42;;;;;;;7.95;6.95;;;;;;;17.45;46.62;95339.56;10461984;28;20063;-30
2022/12/10 02:25:56;;;;;;;9.20;6.90;;;;;;;17.43;46.77;95336.25;10453288;28;20065;-30
2022/12/10 02:30:58;;;;;;;9.10;6.80;;;;;;;17.43;45.88;95338.78;10481371;28;20506;-30
2022/12/10 02:36:01;;;;;;;8.00;6.30;;;;;;;17.42;47.00;95332.03;10465258;28;20033;-30
2022/12/10 02:41:28;;;;;;;9.23;6.65;;;;;;;17.41;46.78;95331.19;10487064;28;20040;-30
2022/12/10 02:46:32;;;;;;;8.32;5.80;;;;;;;17.41;45.27;95343.03;10485987;28;20037;-30
2022/12/10 02:51:35;;;;;;;8.25;6.63;;;;;;;17.40;47.25;95333.78;10476811;28;20128;-30
2022/12/10 02:56:50;;;;;;;6.85;5.85;;;;;;;17.40;46.98;95331.25;10480112;28;20499;-30
2022/12/10 03:01:59;;;;;;;7.18;5.78;;;;;;;17.41;47.28;95331.19;10484993;28;20118;-29
2022/12/10 03:07:06;;;;;;;6.85;6.13;;;;;;;17.41;46.45;95340.50;10484653;28;20032;-30
2022/12/10 03:12:21;;;;;;;8.63;6.28;;;;;;;17.40;47.33;95344.72;10478845;28;20033;-30
2022/12/10 03:17:22;;;;;;;7.97;6.10;;;;;;;17.42;46.65;95349.75;10490295;28;20048;-30
2022/12/10 03:22:22;;;;;;;8.63;7.07;;;;;;;17.42;47.57;95334.56;10480346;28;20037;-30
2022/12/10 03:27:24;;;;;;;8.85;6.05;;;;;;;17.41;45.94;95337.97;10485657;28;20054;-29
2022/12/10 03:32:26;;;;;;;6.82;6.05;;;;;;;17.38;46.55;95338.00;10486865;28;20112;-30
2022/12/10 03:37:28;;;;;;;7.50;5.78;;;;;;;17.37;47.03;95333.81;10465099;28;20032;-30
2022/12/10 03:42:29;;;;;;;8.13;6.07;;;;;;;17.36;45.94;95327.09;10486449;28;20032;-30
2022/12/10 03:47:29;;;;;;;9.30;6.35;;;;;;;17.35;46.68;95320.34;10484007;28;20395;-30
2022/12/10 03:52:29;;;;;;;8.65;5.70;;;;;;;17.36;46.76;95316.97;10478080;28;20032;-30
2022/12/10 03:57:30;;;;;;;8.03;6.03;;;;;;;17.35;45.82;95307.69;10482560;28;20039;-30
2022/12/10 04:02:30;;;;;;;9.47;6.20;;;;;;;17.36;46.85;95322.03;10488621;28;20279;-30
2022/12/10 04:07:31;;;;;;;9.50;6.28;;;;;;;17.37;46.98;95323.69;10481955;28;20290;-30
2022/12/10 04:12:31;;;;;;;7.93;6.37;;;;;;;17.30;46.11;95311.97;10472756;28;20040;-32
2022/12/10 04:17:33;;;;;;;7.05;5.75;;;;;;;17.37;47.05;95326.22;10489865;28;20652;-31
2022/12/10 04:27:52;;;;;;;7.25;6.38;;;;;;;17.40;46.57;95337.13;10488932;28;20043;-29
2022/12/10 04:32:53;;;;;;;9.27;6.00;;;;;;;17.42;46.64;95334.56;10487415;28;20066;-30
2022/12/10 04:37:53;;;;;;;7.57;6.40;;;;;;;17.38;46.56;95325.34;10475507;28;20048;-29
2022/12/10 04:42:54;;;;;;;9.05;6.20;;;;;;;17.34;46.76;95324.53;10482985;28;20570;-29
2022/12/10 04:47:54;;;;;;;7.30;5.68;;;;;;;17.35;46.68;95327.91;10476978;28;20520;-30
2022/12/10 04:52:55;;;;;;;6.65;6.03;;;;;;;17.31;46.51;95324.59;10479727;28;20067;-30
2022/12/10 04:57:55;;;;;;;8.10;6.30;;;;;;;17.33;47.07;95322.06;10474744;28;20047;-29
2022/12/10 05:02:55;;;;;;;7.03;6.03;;;;;;;17.36;46.44;95322.03;10482685;28;20047;-30
2022/12/10 05:07:56;;;;;;;6.93;6.07;;;;;;;17.37;46.02;95323.69;10476220;28;20286;-30
2022/12/10 05:12:56;;;;;;;8.65;6.57;;;;;;;17.35;46.20;95321.19;10469011;28;20040;-29
2022/12/10 05:17:57;;;;;;;7.30;6.10;;;;;;;17.35;47.00;95328.78;10487375;28;20028;-29
2022/12/10 05:28:16;;;;;;;8.23;6.45;;;;;;;17.36;45.99;95354.91;10479391;28;20496;-31
2022/12/10 05:33:17;;;;;;;8.07;6.63;;;;;;;17.37;45.87;95346.47;10481817;28;20120;-29
2022/12/10 05:38:17;;;;;;;7.65;5.57;;;;;;;17.39;46.72;95339.66;10475548;28;20725;-30
2022/12/10 05:43:18;;;;;;;8.52;5.72;;;;;;;17.38;46.53;95350.66;10477169;28;20024;-30
2022/12/10 05:48:18;;;;;;;9.23;6.18;;;;;;;17.37;46.58;95349.00;10479535;28;20299;-30
2022/12/10 05:53:18;;;;;;;6.78;6.07;;;;;;;17.37;45.89;95359.97;10473346;28;20135;-30
2022/12/10 05:58:19;;;;;;;6.72;5.93;;;;;;;17.38;46.82;95374.28;10493516;28;20511;-30
2022/12/10 06:03:19;;;;;;;7.57;5.97;;;;;;;17.40;46.16;95384.38;10480500;28;20037;-29
2022/12/10 06:08:20;;;;;;;7.63;6.30;;;;;;;17.40;45.64;95391.97;10483451;28;20291;-29
2022/12/10 06:13:20;;;;;;;6.38;5.55;;;;;;;17.42;46.63;95387.69;10480799;28;20032;-30
2022/12/10 06:18:21;;;;;;;6.72;5.93;;;;;;;17.46;46.88;95399.44;10481311;28;20111;-30
2022/12/10 06:23:21;;;;;;;5.25;4.72;;;;;;;17.54;47.65;95412.78;10477029;28;20048;-30
2022/12/10 06:28:21;;;;;;;5.27;4.77;;;;;;;17.52;46.89;95401.84;10474674;28;20037;-30
2022/12/10 06:33:22;;;;;;;8.15;5.10;;;;;;;17.50;46.54;95393.47;10466546;28;20310;-30
2022/12/10 06:38:23;;;;;;;6.73;5.33;;;;;;;17.53;45.53;95401.00;10473974;28;20037;-30
2022/12/10 06:43:23;;;;;;;5.85;5.05;;;;;;;17.57;45.97;95412.75;10465970;28;20284;-30
2022/12/10 06:48:24;;;;;;;6.15;5.55;;;;;;;17.58;46.09;95424.53;10476983;28;20044;-30
2022/12/10 06:53:24;;;;;;;6.90;5.53;;;;;;;17.56;45.71;95423.72;10472642;28;20120;-30
2022/12/10 06:58:27;;;;;;;5.63;5.03;;;;;;;17.48;45.93;95425.56;10464354;28;20037;-30
2022/12/10 07:03:27;;;;;;;5.88;4.82;;;;;;;17.53;45.79;95438.94;10471341;28;20036;-30
2022/12/10 07:08:30;;;;;;;6.35;4.65;;;;;;;17.50;46.34;95442.34;10474356;28;20024;-30
2022/12/10 07:13:30;;;;;;;6.22;4.32;;;;;;;17.48;45.79;95449.16;10473757;28;20766;-29
2022/12/10 07:18:31;;;;;;;5.15;4.65;;;;;;;17.49;45.52;95450.00;10468747;28;20036;-29
2022/12/10 07:23:31;;;;;;;5.95;5.30;;;;;;;17.52;45.24;95457.53;10458817;28;20412;-31
2022/12/10 07:28:33;;;;;;;6.70;5.03;;;;;;;17.51;45.77;95453.31;10474341;28;20051;-30
2022/12/10 07:33:34;;;;;;;5.50;4.20;;;;;;;17.39;45.94;95466.16;10478042;28;20630;-32
2022/12/10 07:38:34;;;;;;;4.75;4.25;;;;;;;17.33;45.22;95478.88;10477535;28;20574;-30
2022/12/10 07:43:36;;;;;;;12.95;4.45;;;;;;;17.25;47.49;95475.63;10474921;28;20115;-30
2022/12/10 07:48:38;;;;;;;5.38;4.20;;;;;;;17.18;48.27;95479.13;10475040;28;20408;-29
2022/12/10 07:53:39;;;;;;;6.00;4.78;;;;;;;17.26;47.12;95489.94;10472988;28;20033;-30
2022/12/10 07:58:44;;;;;;;6.70;3.97;;;;;;;17.23;48.29;95487.47;10483518;28;20028;-30
2022/12/10 08:03:44;;;;;;;6.00;4.75;;;;;;;17.16;46.00;95501.88;10479320;28;20032;-30
2022/12/10 08:08:45;;;;;;;10.45;4.57;;;;;;;17.17;48.15;95505.25;10481780;28;20036;-29
2022/12/10 08:13:46;;;;;;;9.63;4.22;;;;;;;17.11;47.76;95507.88;10434844;28;1107531;-30
2022/12/10 08:18:47;;;;;;;6.38;4.50;;;;;;;16.99;48.48;95508.88;10480633;28;20061;-30
2022/12/10 08:23:48;;;;;;;9.53;4.80;;;;;;;16.98;48.24;95516.50;10474299;28;20032;-30
2022/12/10 08:28:49;;;;;;;5.05;4.43;;;;;;;16.96;47.87;95513.13;10477860;28;20412;-31
2022/12/10 08:33:49;;;;;;;5.88;4.78;;;;;;;16.94;47.51;95510.63;10476896;28;20124;-29
2022/12/10 08:38:50;;;;;;;4.95;4.40;;;;;;;16.92;47.56;95517.38;10475457;28;20040;-30
2022/12/10 08:43:52;;;;;;;4.95;4.45;;;;;;;16.89;47.88;95522.50;10476433;28;20039;-31
2022/12/10 08:48:54;;;;;;;5.93;4.28;;;;;;;16.92;45.63;95527.50;10474795;28;20420;-31
2022/12/10 08:53:55;;;;;;;6.45;4.50;;;;;;;16.90;47.19;95534.28;10479987;28;20028;-30
2022/12/10 08:58:55;;;;;;;9.75;4.93;;;;;;;16.85;46.73;95543.63;10478268;28;20036;-29
2022/12/10 09:03:56;;;;;;;8.55;5.07;;;;;;;16.81;46.98;95534.38;10481126;28;20449;-29
2022/12/10 09:08:57;;;;;;;8.18;5.55;;;;;;;16.85;46.66;95550.34;10480152;28;20428;-30
2022/12/10 09:13:57;;;;;;;14.30;6.05;;;;;;;16.89;46.83;95557.06;10481018;28;20037;-30
2022/12/10 09:18:59;;;;;;;14.57;8.80;;;;;;;16.72;46.37;95564.00;10476049;28;20032;-30
2022/12/10 09:23:59;;;;;;;14.25;8.00;;;;;;;16.81;47.73;95563.91;10474119;28;20035;-30
2022/12/10 09:29:00;;;;;;;11.13;7.93;;;;;;;16.83;47.96;95569.75;10475673;28;20043;-30
2022/12/10 09:34:00;;;;;;;14.32;7.07;;;;;;;16.84;48.55;95563.84;10473136;28;20039;-30
2022/12/10 09:39:01;;;;;;;14.05;7.13;;;;;;;16.89;48.84;95578.09;10467959;28;20032;-30
2022/12/10 09:44:17;;;;;;;15.88;6.45;;;;;;;16.91;48.82;95575.56;10471733;28;20373;-30
2022/12/10 09:49:20;;;;;;;11.48;7.60;;;;;;;16.66;45.32;95574.19;10471067;28;20045;-30
2022/12/10 09:54:34;;;;;;;11.82;5.93;;;;;;;16.79;47.58;95565.59;10480002;28;20195;-31
2022/12/10 09:59:39;;;;;;;9.75;6.45;;;;;;;16.87;49.05;95568.84;10466484;28;20633;-31
2022/12/10 10:04:39;;;;;;;20.85;7.15;;;;;;;16.95;49.83;95577.19;10474007;28;20492;-30
2022/12/10 10:09:41;;;;;;;24.92;7.30;;;;;;;17.01;51.60;95561.94;10471436;28;20047;-30
2022/12/10 10:14:44;;;;;;;28.88;9.30;;;;;;;17.08;51.48;95568.59;10472498;28;20032;-30
2022/12/10 10:19:45;;;;;;;20.42;6.90;;;;;;;17.00;51.87;95571.22;10475252;28;20055;-30
2022/12/10 10:24:46;;;;;;;14.88;8.82;;;;;;;17.01;47.40;95577.97;10468012;28;20032;-30
2022/12/10 10:29:52;;;;;;;14.40;9.85;;;;;;;17.00;47.08;95583.03;10468390;28;20047;-30
2022/12/10 10:34:57;;;;;;;13.18;6.68;;;;;;;16.98;51.57;95579.69;10471248;28;20025;-31
2022/12/10 10:39:58;;;;;;;13.20;9.60;;;;;;;16.91;46.30;95590.72;10472540;28;20032;-30
2022/12/10 10:44:59;;;;;;;18.02;11.68;;;;;;;16.83;46.10;95579.88;10469216;28;20024;-30
2022/12/10 10:50:00;;;;;;;20.00;11.60;;;;;;;16.67;43.93;95588.47;10472693;28;20036;-31
2022/12/10 10:55:00;;;;;;;12.32;9.40;;;;;;;16.76;48.15;95590.91;10479470;28;20626;-30
2022/12/10 11:00:05;;;;;;;12.85;7.72;;;;;;;16.83;49.14;95600.09;10473959;28;20040;-30
2022/12/10 11:05:20;;;;;;;11.75;8.52;;;;;;;16.94;48.88;95598.28;10479756;28;20032;-30
2022/12/10 11:10:23;;;;;;;13.30;8.27;;;;;;;16.95;48.26;95599.94;10478134;28;20039;-30
2022/12/10 11:15:24;;;;;;;13.82;7.93;;;;;;;16.87;49.69;95594.13;10476214;28;20040;-30
2022/12/10 11:20:34;;;;;;;17.38;6.60;;;;;;;16.96;49.92;95604.13;10479848;28;20386;-30
2022/12/10 11:25:53;;;;;;;13.00;6.60;;;;;;;16.91;50.48;95609.25;10478252;28;20036;-30
2022/12/10 11:31:09;;;;;;;15.00;6.88;;;;;;;17.02;49.94;95611.66;10470094;28;20036;-30
2022/12/10 11:36:27;;;;;;;11.15;6.03;;;;;;;16.95;50.35;95610.06;10483360;28;20045;-30
2022/12/10 11:41:45;;;;;;;13.38;6.15;;;;;;;16.90;50.29;95619.41;10473614;28;20070;-31
2022/12/10 11:47:15;;;;;;;10.95;5.68;;;;;;;16.90;51.34;95616.88;10472929;28;20043;-30
2022/12/10 11:52:49;;;;;;;11.38;5.47;;;;;;;16.90;50.53;95616.88;10484801;28;20066;-30
2022/12/10 11:58:14;;;;;;;9.48;5.75;;;;;;;16.96;51.70;95615.09;10468108;28;20095;-30
2022/12/10 12:03:28;;;;;;;8.20;4.80;;;;;;;17.03;50.59;95625.97;10483138;28;20048;-30
2022/12/10 12:08:47;;;;;;;15.30;5.88;;;;;;;17.07;49.21;95630.16;10477312;28;20036;-30
2022/12/10 12:14:13;;;;;;;8.07;5.20;;;;;;;17.05;49.77;95631.84;10475521;28;20128;-30
2022/12/10 12:19:24;;;;;;;5.20;4.68;;;;;;;17.05;49.49;95636.88;10478501;28;20526;-31
2022/12/10 12:24:41;;;;;;;6.70;4.57;;;;;;;17.04;48.82;95645.34;10482665;28;20064;-30
2022/12/10 12:29:46;;;;;;;;;;;;;;;17.02;49.10;95642.84;10479580;28;20131;-31
2022/12/10 12:34:53;;;;;;;9.07;4.10;;;;;;;16.99;49.65;95649.63;10468605;28;19917;-30
2022/12/10 12:40:15;;;;;;;7.90;3.58;;;;;;;16.94;49.73;95646.31;10472650;28;20072;-30
2022/12/10 12:45:30;;;;;;;7.57;4.18;;;;;;;17.05;48.94;95652.06;10481511;28;20049;-31
2022/12/10 12:50:56;;;;;;;8.73;4.43;;;;;;;16.97;50.15;95656.38;10472890;28;20076;-30
2022/12/10 12:56:24;;;;;;;9.03;4.60;;;;;;;17.02;49.79;95655.50;10466173;28;20060;-31
2022/12/10 13:01:46;;;;;;;10.27;4.13;;;;;;;17.07;49.18;95665.56;10471993;28;20671;-29
2022/12/10 13:07:19;;;;;;;13.32;9.05;;;;;;;16.90;45.93;95682.59;10460658;28;20032;-30
2022/12/10 13:12:28;;;;;;;11.70;4.78;;;;;;;17.03;49.64;95686.66;10442607;28;20509;-31
2022/12/10 13:17:33;;;;;;;15.40;5.20;;;;;;;17.08;48.38;95695.03;10466707;28;20029;-30
2022/12/10 13:22:42;;;;;;;15.65;5.95;;;;;;;17.01;47.45;95701.84;10472316;28;20040;-31
2022/12/10 13:27:56;;;;;;;15.20;6.15;;;;;;;17.09;49.89;95692.47;10472258;28;20082;-30
2022/12/10 13:33:18;;;;;;;8.70;5.03;;;;;;;17.11;49.68;95690.78;10472403;28;20040;-30
2022/12/10 13:38:22;;;;;;;11.23;5.03;;;;;;;17.11;50.32;95703.44;10469371;28;20041;-30
2022/12/10 13:49:02;;;;;;;10.35;5.28;;;;;;;17.00;49.85;95692.56;10472403;28;20029;-34
2022/12/10 13:54:18;;;;;;;;;;;;;;;17.11;51.23;95717.75;10479188;28;20255;-31
2022/12/10 13:59:27;;;;;;;6.63;3.88;;;;;;;17.18;50.81;95737.06;10473859;28;19912;-30
2022/12/10 14:05:06;;;;;;;12.05;4.80;;;;;;;17.17;50.39;95736.22;10480112;28;20040;-31
2022/12/10 14:10:14;;;;;;;6.03;4.38;;;;;;;17.16;50.68;95742.13;10472400;28;20041;-30
2022/12/10 14:15:22;;;;;;;10.43;4.60;;;;;;;17.22;50.34;95753.88;10471891;28;20032;-30
2022/12/10 14:20:25;;;;;;;8.85;4.10;;;;;;;17.30;50.31;95762.22;10476124;28;20036;-30
2022/12/10 14:25:25;;;;;;;7.55;3.85;;;;;;;17.38;50.48;95773.13;10477768;28;20307;-30
2022/12/10 14:30:27;;;;;;;9.25;4.63;;;;;;;17.44;50.27;95770.53;10464193;28;20040;-30
2022/12/10 14:35:28;;;;;;;6.80;3.28;;;;;;;17.54;50.11;95772.97;10472194;28;20094;-30
2022/12/10 14:40:37;;;;;;;5.82;3.67;;;;;;;17.67;50.94;95779.53;10480159;28;20036;-31
2022/12/10 14:45:45;;;;;;;9.52;7.03;;;;;;;17.24;45.46;95782.53;10472959;28;20029;-30
2022/12/10 14:50:46;;;;;;;12.13;7.13;;;;;;;17.24;46.55;95778.31;10472995;28;20036;-30
2022/12/10 14:55:50;;;;;;;13.27;6.28;;;;;;;17.37;47.28;95789.16;10473267;28;20037;-30
2022/12/10 15:00:51;;;;;;;7.97;5.00;;;;;;;17.42;48.19;95783.19;10474549;28;20045;-30
2022/12/10 15:06:01;;;;;;;14.85;6.53;;;;;;;17.25;46.33;95794.31;10467842;28;20041;-30
2022/12/10 15:11:02;;;;;;;14.73;7.78;;;;;;;17.22;46.39;95790.13;10463444;28;20044;-30
2022/12/10 15:16:03;;;;;;;9.85;6.63;;;;;;;17.29;47.97;95801.03;10471019;28;20037;-32
2022/12/10 15:21:24;;;;;;;12.05;7.03;;;;;;;17.26;47.88;95803.59;10469424;28;20045;-30
2022/12/10 15:26:32;;;;;;;11.48;7.65;;;;;;;17.14;46.35;95809.59;10471683;28;20437;-30
2022/12/10 15:31:32;;;;;;;12.70;7.47;;;;;;;17.17;46.56;95818.84;10470176;28;20079;-31
2022/12/10 15:36:38;;;;;;;13.88;8.02;;;;;;;17.28;46.91;95815.38;10477089;28;20509;-31
2022/12/10 15:41:52;;;;;;;9.53;7.70;;;;;;;17.27;46.65;95818.75;10482219;28;20036;-30
2022/12/10 15:47:19;;;;;;;9.27;5.38;;;;;;;17.38;47.59;95822.03;10475264;28;20040;-30
2022/12/10 15:52:25;;;;;;;10.70;5.20;;;;;;;17.36;47.90;95831.34;10486409;28;20048;-31
2022/12/10 15:57:31;;;;;;;14.20;7.10;;;;;;;17.34;46.71;95835.53;10478826;28;20041;-30
2022/12/10 16:02:39;;;;;;;12.20;5.17;;;;;;;17.52;49.75;95832.03;10468799;28;20028;-31
2022/12/10 16:07:40;;;;;;;8.75;4.88;;;;;;;17.58;50.51;95837.84;10483074;28;21084;-30
2022/12/10 16:12:41;;;;;;;13.20;6.35;;;;;;;17.32;48.21;95834.72;10475782;28;20059;-31
2022/12/10 16:17:41;;;;;;;9.73;6.00;;;;;;;17.39;48.86;95835.50;10478706;28;20118;-30
2022/12/10 16:22:41;;;;;;;12.07;5.47;;;;;;;17.42;48.93;95838.84;10481472;28;20120;-30
2022/12/10 16:27:42;;;;;;;13.33;7.63;;;;;;;17.46;49.28;95849.78;10480462;28;20029;-30
2022/12/10 16:32:43;;;;;;;11.20;6.20;;;;;;;17.41;49.63;95856.59;10476602;28;20698;-31
2022/12/10 16:37:46;;;;;;;15.20;4.82;;;;;;;17.55;49.89;95855.59;10471280;28;20040;-31
2022/12/10 16:42:47;;;;;;;15.30;5.20;;;;;;;17.59;49.58;95864.00;10482908;28;20120;-30
2022/12/10 16:47:48;;;;;;;18.48;8.10;;;;;;;17.59;50.78;95866.53;10466797;28;20131;-30
2022/12/10 16:52:49;;;;;;;18.63;7.38;;;;;;;17.62;51.07;95881.69;10480969;28;20042;-30
2022/12/10 16:57:50;;;;;;;14.85;6.97;;;;;;;17.66;51.08;95879.09;10476964;28;20086;-30
2022/12/10 17:02:51;;;;;;;16.20;8.32;;;;;;;17.65;50.59;95876.63;10472876;28;20905;-30
2022/12/10 17:07:52;;;;;;;20.38;7.88;;;;;;;17.68;50.84;95872.31;10469409;28;20529;-31
2022/12/10 17:12:52;;;;;;;21.13;8.63;;;;;;;17.67;50.56;95879.97;10474685;28;20094;-30
2022/12/10 17:17:53;;;;;;;20.03;8.00;;;;;;;17.69;49.79;95884.16;10482906;28;20035;-29
2022/12/10 17:22:53;;;;;;;18.63;8.73;;;;;;;17.66;50.52;95883.34;10482932;28;20040;-31
2022/12/10 17:27:54;;;;;;;15.43;7.33;;;;;;;17.64;50.20;95880.81;10488191;28;20492;-30
2022/12/10 17:32:54;;;;;;;13.98;6.63;;;;;;;17.63;50.28;95876.63;10491281;28;20024;-30
2022/12/10 17:37:55;;;;;;;11.30;6.13;;;;;;;17.62;48.72;95884.22;10485550;28;20212;-31
2022/12/10 17:42:55;;;;;;;14.73;6.47;;;;;;;17.56;48.19;95891.88;10498149;28;20301;-30
2022/12/10 17:47:55;;;;;;;14.27;6.90;;;;;;;17.60;48.86;95898.59;10483224;28;20774;-32
2022/12/10 17:52:57;;;;;;;12.07;6.03;;;;;;;17.64;49.10;95905.28;10481589;28;20044;-30
2022/12/10 17:57:58;;;;;;;17.33;7.65;;;;;;;17.64;49.60;95905.28;10472636;28;20516;-30
2022/12/10 18:02:58;;;;;;;13.82;6.72;;;;;;;17.61;49.30;95910.38;10478341;28;20040;-30
2022/12/10 18:07:59;;;;;;;13.17;7.17;;;;;;;17.60;48.61;95913.78;10472171;28;20101;-31
2022/12/10 18:13:00;;;;;;;10.15;5.88;;;;;;;17.62;49.31;95924.72;10485984;28;20028;-31
2022/12/10 18:18:01;;;;;;;12.02;6.10;;;;;;;17.60;48.56;95924.75;10476700;28;20107;-30
2022/12/10 18:23:03;;;;;;;9.95;6.03;;;;;;;17.59;49.01;95932.34;10470251;28;20032;-30
2022/12/10 18:28:26;;;;;;;11.68;6.40;;;;;;;17.66;47.94;95929.72;10484536;28;20029;-30
2022/12/10 18:33:27;;;;;;;17.52;10.02;;;;;;;17.65;49.54;95937.34;10482215;28;20063;-30
2022/12/10 18:38:28;;;;;;;18.83;12.30;;;;;;;17.62;50.58;95942.44;10482829;28;20124;-31
2022/12/10 18:43:28;;;;;;;23.75;12.02;;;;;;;17.57;50.96;95942.47;10474742;28;20035;-30
2022/12/10 18:48:29;;;;;;;26.23;8.50;;;;;;;17.51;49.79;95949.28;10479450;28;20059;-30
2022/12/10 18:53:29;;;;;;;14.77;9.00;;;;;;;17.54;50.06;95945.03;10482806;28;20024;-30
2022/12/10 18:58:29;;;;;;;20.50;8.90;;;;;;;17.52;50.33;95950.97;10477280;28;20048;-30
2022/12/10 19:03:30;;;;;;;18.33;8.93;;;;;;;17.46;49.85;95940.88;10471219;28;20353;-30
2022/12/10 19:08:30;;;;;;;26.03;9.77;;;;;;;17.51;50.77;95961.94;10474923;28;20317;-30
2022/12/10 19:13:30;;;;;;;36.57;12.47;;;;;;;17.57;51.41;95954.31;10476983;28;20184;-30
2022/12/10 19:18:31;;;;;;;26.48;9.65;;;;;;;17.48;51.01;95950.16;10467860;28;20661;-31
2022/12/10 19:23:31;;;;;;;20.53;9.23;;;;;;;17.50;50.74;95962.78;10467856;28;20036;-30
2022/12/10 19:28:32;;;;;;;18.63;10.13;;;;;;;17.55;50.94;95948.41;10472420;28;20043;-30
2022/12/10 19:33:32;;;;;;;23.63;10.20;;;;;;;17.54;51.17;95949.25;10470027;28;20040;-30
2022/12/10 19:38:32;;;;;;;21.37;11.00;;;;;;;17.55;50.39;95950.91;10474794;28;20081;-31
2022/12/10 19:43:33;;;;;;;23.50;9.23;;;;;;;17.60;51.07;95954.25;10479438;28;20268;-31
2022/12/10 19:48:33;;;;;;;21.58;8.43;;;;;;;17.61;51.77;95956.78;10479294;28;20032;-29
2022/12/10 19:53:34;;;;;;;15.87;7.90;;;;;;;17.31;48.62;95966.28;10474010;28;20041;-30
2022/12/10 19:58:34;;;;;;;17.80;8.10;;;;;;;17.42;49.54;95965.38;10475207;28;20059;-30
2022/12/10 20:03:35;;;;;;;19.57;9.20;;;;;;;17.47;50.29;95962.78;10487323;28;20037;-30
2022/12/10 20:08:36;;;;;;;19.27;9.45;;;;;;;17.50;50.05;95955.19;10474047;28;20552;-30
2022/12/10 20:13:36;;;;;;;19.90;8.70;;;;;;;17.50;49.80;95962.78;10477083;28;20044;-31
2022/12/10 20:18:37;;;;;;;17.67;8.68;;;;;;;17.56;50.21;95958.50;10473875;28;20039;-31
2022/12/10 20:23:37;;;;;;;22.63;9.90;;;;;;;17.51;50.16;95951.81;10471986;28;20036;-31
2022/12/10 20:28:38;;;;;;;14.40;7.40;;;;;;;17.60;49.51;95954.25;10474566;28;20449;-31
2022/12/10 20:33:39;;;;;;;30.73;9.33;;;;;;;17.66;49.17;95960.09;10470807;28;20040;-30
2022/12/10 20:38:39;;;;;;;19.40;7.72;;;;;;;17.63;49.44;95965.19;10486561;28;20070;-31
2022/12/10 20:43:40;;;;;;;22.23;8.80;;;;;;;17.66;50.66;95961.81;10482448;28;20550;-31
2022/12/10 20:48:40;;;;;;;19.52;8.27;;;;;;;17.59;50.94;95967.78;10483169;28;20067;-31
2022/12/10 20:53:41;;;;;;;15.60;8.17;;;;;;;17.55;50.79;95963.56;10466184;28;20033;-30
2022/12/10 20:58:42;;;;;;;15.18;7.60;;;;;;;17.54;49.31;95972.88;10462133;28;20802;-30
2022/12/10 21:03:43;;;;;;;20.45;8.57;;;;;;;17.58;50.44;95969.44;10472779;28;20065;-30
2022/12/10 21:08:45;;;;;;;18.05;8.75;;;;;;;17.62;50.09;95962.69;10474644;28;20113;-30
2022/12/10 21:13:46;;;;;;;13.00;6.75;;;;;;;17.66;50.23;95971.94;10469420;28;20146;-30
2022/12/10 21:18:49;;;;;;;16.02;7.75;;;;;;;17.69;49.41;95962.63;10464774;28;20047;-30
2022/12/10 21:23:50;;;;;;;11.23;6.18;;;;;;;17.73;49.11;95963.44;10471448;28;20036;-30
2022/12/10 21:28:50;;;;;;;13.38;7.97;;;;;;;17.75;49.48;95974.38;10462982;28;20045;-31
2022/12/10 21:33:51;;;;;;;16.30;6.63;;;;;;;17.81;49.08;95969.25;10478887;28;20047;-30
2022/12/10 21:38:52;;;;;;;12.45;5.97;;;;;;;17.82;48.71;95976.00;10465551;28;20433;-30
2022/12/10 21:43:53;;;;;;;12.75;6.38;;;;;;;17.78;48.92;95971.81;10482977;28;20039;-31
2022/12/10 21:48:53;;;;;;;11.88;6.90;;;;;;;17.71;49.50;95963.44;10469643;28;20109;-30
2022/12/10 21:53:57;;;;;;;14.10;6.57;;;;;;;17.74;49.33;95967.66;10461087;28;20102;-30
2022/12/10 21:58:58;;;;;;;13.60;6.13;;;;;;;17.74;50.36;95972.72;10484593;28;20772;-30
2022/12/10 22:03:58;;;;;;;13.50;7.83;;;;;;;17.73;50.35;95965.97;10479761;28;20111;-30
2022/12/10 22:08:58;;;;;;;13.37;8.67;;;;;;;17.73;50.26;95965.97;10494868;28;20298;-30
2022/12/10 22:13:59;;;;;;;13.80;6.87;;;;;;;17.69;50.94;95972.75;10478427;28;20556;-30
2022/12/10 22:18:59;;;;;;;11.53;6.30;;;;;;;17.67;50.45;95961.78;10478182;28;20340;-31
2022/12/10 22:24:00;;;;;;;11.13;6.90;;;;;;;17.64;51.37;95971.94;10463388;28;20016;-30
2022/12/10 22:29:00;;;;;;;15.75;6.70;;;;;;;17.67;50.63;95974.44;10481131;28;20348;-30
2022/12/10 22:34:00;;;;;;;13.93;6.80;;;;;;;17.71;51.29;95978.63;10476770;28;20059;-32
2022/12/10 22:39:01;;;;;;;19.57;7.93;;;;;;;17.71;51.09;95972.72;10478845;28;20036;-31
2022/12/10 22:44:01;;;;;;;9.00;6.20;;;;;;;17.66;51.11;95954.22;10476071;28;20037;-30
2022/12/10 22:49:01;;;;;;;12.20;7.25;;;;;;;17.62;51.94;95967.75;10481995;28;20055;-32
2022/12/10 22:54:02;;;;;;;11.53;6.30;;;;;;;17.62;51.70;95953.41;10476068;28;20044;-32
2022/12/10 22:59:04;;;;;;;13.02;5.97;;;;;;;17.62;51.90;95952.56;10475398;28;20040;-31
2022/12/10 23:04:04;;;;;;;14.50;6.63;;;;;;;17.62;51.71;95958.47;10485882;28;20078;-30
2022/12/10 23:09:04;;;;;;;12.07;6.30;;;;;;;17.64;52.02;95963.50;10488028;28;20059;-31
2022/12/10 23:14:05;;;;;;;11.57;6.17;;;;;;;17.53;51.61;95942.50;10481711;28;20302;-30
2022/12/10 23:19:06;;;;;;;13.33;6.70;;;;;;;17.64;52.81;95955.91;10486290;28;20298;-30
2022/12/10 23:24:07;;;;;;;14.07;6.82;;;;;;;17.63;52.50;95951.69;10480409;28;20705;-29
2022/12/10 23:29:07;;;;;;;13.75;6.13;;;;;;;17.65;52.20;95952.53;10486878;28;20032;-30
2022/12/10 23:34:08;;;;;;;9.00;5.27;;;;;;;17.67;52.34;95941.53;10482534;28;20077;-31
2022/12/10 23:39:08;;;;;;;12.35;5.70;;;;;;;17.69;52.55;95939.00;10489911;28;20043;-30
2022/12/10 23:44:09;;;;;;;13.02;6.07;;;;;;;17.65;52.80;95932.28;10482635;28;20584;-30